Time;durP1;ratioP1;P1;durP2;ratioP2;P2;SDS_P1;SDS_P2;PMS_P1;PMS_P2;Temp;Humidity;BMP_temperature;BMP_pressure;BME280_temperature;BME280_humidity;BME280_pressure;Samples;Min_cycle;Max_cycle;Signal;HPM_P1;HPM_P2
2023/01/10 00:00:00;;;;;;;1.8;1.8;;;;;;;5.1;100.0;100990;;;;
2023/01/10 00:01:04;;;;;;;1.8;1.8;;;;;;;5.0;100.0;100980;;;;
2023/01/10 00:02:00;;;;;;;1.8;1.8;;;;;;;5.0;100.0;100980;;;;
2023/01/10 00:03:01;;;;;;;1.8;1.8;;;;;;;5.0;100.0;100980;;;;
2023/01/10 00:04:00;;;;;;;1.8;1.8;;;;;;;5.0;100.0;100980;;;;
2023/01/10 00:05:00;;;;;;;1.8;1.8;;;;;;;5.0;100.0;100990;;;;
2023/01/10 00:06:00;;;;;;;1.8;1.8;;;;;;;5.0;100.0;100990;;;;
2023/01/10 00:07:00;;;;;;;1.8;1.8;;;;;;;5.0;100.0;100990;;;;
2023/01/10 00:08:02;;;;;;;1.8;1.8;;;;;;;5.0;100.0;100990;;;;
2023/01/10 00:09:00;;;;;;;1.8;1.8;;;;;;;5.0;100.0;100990;;;;
2023/01/10 00:10:00;;;;;;;1.8;1.8;;;;;;;5.0;100.0;100990;;;;
2023/01/10 00:13:22;;;;;;;1.8;1.8;;;;;;;4.9;100.0;101000;;;;
2023/01/10 00:14:00;;;;;;;1.8;1.8;;;;;;;4.9;100.0;101000;;;;
2023/01/10 00:15:00;;;;;;;2.1;2.1;;;;;;;4.9;100.0;101010;;;;
2023/01/10 00:16:07;;;;;;;2.1;2.1;;;;;;;4.9;100.0;101010;;;;
2023/01/10 00:17:01;;;;;;;2.1;2.1;;;;;;;4.8;100.0;101010;;;;
2023/01/10 00:18:00;;;;;;;2.1;2.1;;;;;;;4.8;100.0;101010;;;;
2023/01/10 00:19:00;;;;;;;2.1;2.1;;;;;;;4.8;100.0;101020;;;;
2023/01/10 00:20:00;;;;;;;2.1;2.1;;;;;;;4.8;100.0;101020;;;;
2023/01/10 00:21:00;;;;;;;2.1;2.1;;;;;;;4.8;100.0;101020;;;;
2023/01/10 00:22:04;;;;;;;2.1;2.1;;;;;;;4.8;100.0;101020;;;;
2023/01/10 00:23:00;;;;;;;2.1;2.1;;;;;;;4.9;100.0;101030;;;;
2023/01/10 00:24:12;;;;;;;2.1;2.1;;;;;;;4.9;100.0;101030;;;;
2023/01/10 00:25:00;;;;;;;2.1;2.1;;;;;;;4.8;100.0;101030;;;;
2023/01/10 00:26:00;;;;;;;2.1;2.1;;;;;;;4.8;100.0;101030;;;;
2023/01/10 00:27:01;;;;;;;2.1;2.1;;;;;;;4.8;100.0;101040;;;;
2023/01/10 00:28:09;;;;;;;2.1;2.1;;;;;;;4.8;100.0;101040;;;;
2023/01/10 00:29:00;;;;;;;2.1;2.1;;;;;;;4.9;100.0;101040;;;;
2023/01/10 00:30:07;;;;;;;2.1;2.1;;;;;;;4.9;100.0;101040;;;;
2023/01/10 00:31:05;;;;;;;2.1;2.1;;;;;;;4.8;100.0;101040;;;;
2023/01/10 00:32:00;;;;;;;2.1;2.1;;;;;;;4.8;100.0;101040;;;;
2023/01/10 00:33:00;;;;;;;2.1;2.1;;;;;;;4.9;100.0;101050;;;;
2023/01/10 00:34:00;;;;;;;2.1;2.1;;;;;;;4.9;100.0;101050;;;;
2023/01/10 00:35:00;;;;;;;2.2;2.2;;;;;;;4.8;100.0;101050;;;;
2023/01/10 00:36:01;;;;;;;2.2;2.2;;;;;;;4.8;100.0;101050;;;;
2023/01/10 00:37:00;;;;;;;2.2;2.2;;;;;;;4.8;100.0;101050;;;;
2023/01/10 00:38:04;;;;;;;2.2;2.2;;;;;;;4.8;100.0;101050;;;;
2023/01/10 00:39:00;;;;;;;2.2;2.2;;;;;;;4.8;100.0;101050;;;;
2023/01/10 00:40:00;;;;;;;2.2;2.2;;;;;;;4.8;100.0;101050;;;;
2023/01/10 00:41:00;;;;;;;2.2;2.2;;;;;;;4.8;100.0;101050;;;;
2023/01/10 00:44:00;;;;;;;2.2;2.2;;;;;;;4.7;100.0;101060;;;;
2023/01/10 00:45:00;;;;;;;2.2;2.2;;;;;;;4.7;100.0;101060;;;;
2023/01/10 00:46:01;;;;;;;2.2;2.2;;;;;;;4.7;100.0;101060;;;;
2023/01/10 00:47:00;;;;;;;2.2;2.2;;;;;;;4.7;100.0;101070;;;;
2023/01/10 00:48:00;;;;;;;2.2;2.2;;;;;;;4.7;100.0;101070;;;;
2023/01/10 00:49:00;;;;;;;2.2;2.2;;;;;;;4.7;100.0;101070;;;;
2023/01/10 00:50:00;;;;;;;2.2;2.2;;;;;;;4.7;100.0;101070;;;;
2023/01/10 00:51:00;;;;;;;2.2;2.2;;;;;;;4.6;100.0;101070;;;;
2023/01/10 00:52:01;;;;;;;2.2;2.2;;;;;;;4.6;100.0;101070;;;;
2023/01/10 00:53:00;;;;;;;2.2;2.2;;;;;;;4.6;100.0;101070;;;;
2023/01/10 00:54:00;;;;;;;2.2;2.2;;;;;;;4.6;100.0;101070;;;;
2023/01/10 00:55:00;;;;;;;2.3;2.3;;;;;;;4.6;100.0;101070;;;;
2023/01/10 00:56:00;;;;;;;2.3;2.3;;;;;;;4.6;100.0;101070;;;;
2023/01/10 00:57:00;;;;;;;2.3;2.3;;;;;;;4.6;100.0;101080;;;;
2023/01/10 00:58:00;;;;;;;2.3;2.3;;;;;;;4.6;100.0;101080;;;;
2023/01/10 00:59:00;;;;;;;2.3;2.3;;;;;;;4.6;100.0;101080;;;;
2023/01/10 01:00:00;;;;;;;2.3;2.3;;;;;;;4.6;100.0;101080;;;;
2023/01/10 01:01:00;;;;;;;2.3;2.3;;;;;;;4.5;100.0;101080;;;;
2023/01/10 01:02:00;;;;;;;2.3;2.3;;;;;;;4.5;100.0;101080;;;;
2023/01/10 01:03:00;;;;;;;2.3;2.3;;;;;;;4.5;100.0;101080;;;;
2023/01/10 01:04:00;;;;;;;2.3;2.3;;;;;;;4.5;100.0;101080;;;;
2023/01/10 01:05:00;;;;;;;2.3;2.3;;;;;;;4.5;100.0;101090;;;;
2023/01/10 01:06:03;;;;;;;2.3;2.3;;;;;;;4.5;100.0;101090;;;;
2023/01/10 01:07:01;;;;;;;2.3;2.3;;;;;;;4.5;100.0;101090;;;;
2023/01/10 01:08:00;;;;;;;2.3;2.3;;;;;;;4.5;100.0;101090;;;;
2023/01/10 01:09:00;;;;;;;2.3;2.3;;;;;;;4.4;100.0;101090;;;;
2023/01/10 01:11:00;;;;;;;2.3;2.3;;;;;;;4.4;100.0;101100;;;;
2023/01/10 01:12:00;;;;;;;2.3;2.3;;;;;;;4.4;100.0;101100;;;;
2023/01/10 01:13:10;;;;;;;2.3;2.3;;;;;;;4.4;100.0;101110;;;;
2023/01/10 01:14:00;;;;;;;2.3;2.3;;;;;;;4.4;100.0;101110;;;;
2023/01/10 01:15:00;;;;;;;2.1;2.1;;;;;;;4.4;100.0;101100;;;;
2023/01/10 01:16:01;;;;;;;2.1;2.1;;;;;;;4.4;100.0;101100;;;;
2023/01/10 01:17:00;;;;;;;2.1;2.1;;;;;;;4.4;100.0;101100;;;;
2023/01/10 01:18:00;;;;;;;2.1;2.1;;;;;;;4.4;100.0;101100;;;;
2023/01/10 01:19:00;;;;;;;2.1;2.1;;;;;;;4.4;100.0;101110;;;;
2023/01/10 01:20:00;;;;;;;2.1;2.1;;;;;;;4.4;100.0;101110;;;;
2023/01/10 01:21:02;;;;;;;2.1;2.1;;;;;;;4.3;100.0;101110;;;;
2023/01/10 01:22:00;;;;;;;2.1;2.1;;;;;;;4.3;100.0;101110;;;;
2023/01/10 01:23:00;;;;;;;2.1;2.1;;;;;;;4.4;100.0;101110;;;;
2023/01/10 01:24:00;;;;;;;2.1;2.1;;;;;;;4.4;100.0;101110;;;;
2023/01/10 01:25:00;;;;;;;2.1;2.1;;;;;;;4.5;100.0;101110;;;;
2023/01/10 01:26:00;;;;;;;2.1;2.1;;;;;;;4.5;100.0;101110;;;;
2023/01/10 01:27:00;;;;;;;2.1;2.1;;;;;;;4.4;100.0;101110;;;;
2023/01/10 01:28:00;;;;;;;2.1;2.1;;;;;;;4.4;100.0;101110;;;;
2023/01/10 01:29:00;;;;;;;2.1;2.1;;;;;;;4.4;100.0;101130;;;;
2023/01/10 01:30:00;;;;;;;2.1;2.1;;;;;;;4.4;100.0;101130;;;;
2023/01/10 01:31:06;;;;;;;2.1;2.1;;;;;;;4.4;100.0;101130;;;;
2023/01/10 01:32:00;;;;;;;2.1;2.1;;;;;;;4.4;100.0;101130;;;;
2023/01/10 01:33:00;;;;;;;2.1;2.1;;;;;;;4.3;100.0;101140;;;;
2023/01/10 01:34:00;;;;;;;2.0;2.0;;;;;;;4.3;100.0;101140;;;;
2023/01/10 01:35:00;;;;;;;2.0;2.0;;;;;;;4.3;100.0;101140;;;;
2023/01/10 01:36:00;;;;;;;2.0;2.0;;;;;;;4.3;100.0;101140;;;;
2023/01/10 01:37:00;;;;;;;2.0;2.0;;;;;;;4.4;100.0;101150;;;;
2023/01/10 01:38:00;;;;;;;2.0;2.0;;;;;;;4.4;100.0;101150;;;;
2023/01/10 01:39:00;;;;;;;2.0;2.0;;;;;;;4.4;100.0;101150;;;;
2023/01/10 01:40:00;;;;;;;2.0;2.0;;;;;;;4.4;100.0;101150;;;;
2023/01/10 01:41:00;;;;;;;2.0;2.0;;;;;;;4.4;100.0;101150;;;;
2023/01/10 01:42:00;;;;;;;2.0;2.0;;;;;;;4.4;100.0;101150;;;;
2023/01/10 01:43:00;;;;;;;2.0;2.0;;;;;;;4.4;100.0;101140;;;;
2023/01/10 01:44:02;;;;;;;2.0;2.0;;;;;;;4.4;100.0;101140;;;;
2023/01/10 01:45:07;;;;;;;2.0;2.0;;;;;;;4.4;100.0;101140;;;;
2023/01/10 01:46:03;;;;;;;2.0;2.0;;;;;;;4.4;100.0;101140;;;;
2023/01/10 01:47:04;;;;;;;2.0;2.0;;;;;;;4.5;100.0;101140;;;;
2023/01/10 01:48:05;;;;;;;2.0;2.0;;;;;;;4.5;100.0;101140;;;;
2023/01/10 01:49:02;;;;;;;2.0;2.0;;;;;;;4.5;100.0;101140;;;;
2023/01/10 01:50:00;;;;;;;2.0;2.0;;;;;;;4.5;100.0;101140;;;;
2023/01/10 01:51:10;;;;;;;2.0;2.0;;;;;;;4.6;100.0;101150;;;;
2023/01/10 01:52:04;;;;;;;2.0;2.0;;;;;;;4.6;100.0;101150;;;;
2023/01/10 01:53:02;;;;;;;2.0;2.0;;;;;;;4.6;100.0;101150;;;;
2023/01/10 01:54:04;;;;;;;2.3;2.2;;;;;;;4.6;100.0;101150;;;;
2023/01/10 01:55:02;;;;;;;2.3;2.2;;;;;;;4.7;100.0;101160;;;;
2023/01/10 01:56:03;;;;;;;2.3;2.2;;;;;;;4.7;100.0;101160;;;;
2023/01/10 01:57:10;;;;;;;2.3;2.2;;;;;;;4.7;100.0;101160;;;;
2023/01/10 01:58:02;;;;;;;2.3;2.2;;;;;;;4.7;100.0;101160;;;;
2023/01/10 01:59:05;;;;;;;2.3;2.2;;;;;;;4.7;100.0;101170;;;;
2023/01/10 02:00:01;;;;;;;2.3;2.2;;;;;;;4.7;100.0;101170;;;;
2023/01/10 02:01:01;;;;;;;2.3;2.2;;;;;;;4.8;100.0;101170;;;;
2023/01/10 02:02:04;;;;;;;2.3;2.2;;;;;;;4.8;100.0;101170;;;;
2023/01/10 02:03:03;;;;;;;2.3;2.2;;;;;;;4.7;100.0;101160;;;;
2023/01/10 02:04:07;;;;;;;2.3;2.2;;;;;;;4.7;100.0;101160;;;;
2023/01/10 02:05:02;;;;;;;2.3;2.2;;;;;;;4.8;100.0;101160;;;;
2023/01/10 02:06:00;;;;;;;2.3;2.2;;;;;;;4.8;100.0;101160;;;;
2023/01/10 02:07:00;;;;;;;2.3;2.2;;;;;;;4.8;100.0;101160;;;;
2023/01/10 02:08:01;;;;;;;2.3;2.2;;;;;;;4.8;100.0;101160;;;;
2023/01/10 02:09:10;;;;;;;2.3;2.2;;;;;;;4.7;100.0;101170;;;;
2023/01/10 02:10:05;;;;;;;2.3;2.2;;;;;;;4.7;100.0;101170;;;;
2023/01/10 02:11:05;;;;;;;2.3;2.2;;;;;;;4.8;100.0;101170;;;;
2023/01/10 02:12:01;;;;;;;2.3;2.2;;;;;;;4.8;100.0;101170;;;;
2023/01/10 02:13:02;;;;;;;2.3;2.2;;;;;;;4.8;100.0;101170;;;;
2023/01/10 02:14:03;;;;;;;2.1;2.1;;;;;;;4.8;100.0;101170;;;;
2023/01/10 02:15:02;;;;;;;2.1;2.1;;;;;;;4.8;100.0;101170;;;;
2023/01/10 02:16:00;;;;;;;2.1;2.1;;;;;;;4.8;100.0;101170;;;;
2023/01/10 02:17:00;;;;;;;2.1;2.1;;;;;;;4.8;100.0;101170;;;;
2023/01/10 02:18:01;;;;;;;2.1;2.1;;;;;;;4.8;100.0;101170;;;;
2023/01/10 02:19:00;;;;;;;2.1;2.1;;;;;;;4.8;100.0;101170;;;;
2023/01/10 02:20:02;;;;;;;2.1;2.1;;;;;;;4.8;100.0;101170;;;;
2023/01/10 02:21:10;;;;;;;2.1;2.1;;;;;;;4.9;100.0;101170;;;;
2023/01/10 02:22:10;;;;;;;2.1;2.1;;;;;;;4.9;100.0;101170;;;;
2023/01/10 02:23:01;;;;;;;2.1;2.1;;;;;;;4.8;100.0;101170;;;;
2023/01/10 02:24:10;;;;;;;2.1;2.1;;;;;;;4.8;100.0;101170;;;;
2023/01/10 02:25:00;;;;;;;2.1;2.1;;;;;;;4.8;100.0;101170;;;;
2023/01/10 02:26:08;;;;;;;2.1;2.1;;;;;;;4.8;100.0;101170;;;;
2023/01/10 02:27:01;;;;;;;2.1;2.1;;;;;;;4.8;100.0;101170;;;;
2023/01/10 02:28:10;;;;;;;2.1;2.1;;;;;;;4.8;100.0;101170;;;;
2023/01/10 02:29:10;;;;;;;2.1;2.1;;;;;;;4.8;100.0;101170;;;;
2023/01/10 02:30:10;;;;;;;2.1;2.1;;;;;;;4.8;100.0;101170;;;;
2023/01/10 02:31:10;;;;;;;2.1;2.1;;;;;;;4.8;100.0;101170;;;;
2023/01/10 02:32:03;;;;;;;2.1;2.1;;;;;;;4.8;100.0;101170;;;;
2023/01/10 02:33:10;;;;;;;2.1;2.1;;;;;;;4.7;100.0;101180;;;;
2023/01/10 02:34:10;;;;;;;1.7;1.7;;;;;;;4.7;100.0;101180;;;;
2023/01/10 02:35:07;;;;;;;1.7;1.7;;;;;;;4.8;100.0;101180;;;;
2023/01/10 02:36:03;;;;;;;1.7;1.7;;;;;;;4.8;100.0;101180;;;;
2023/01/10 02:37:09;;;;;;;1.7;1.7;;;;;;;4.8;100.0;101180;;;;
2023/01/10 02:38:01;;;;;;;1.7;1.7;;;;;;;4.8;100.0;101180;;;;
2023/01/10 02:39:10;;;;;;;1.7;1.7;;;;;;;4.8;100.0;101190;;;;
2023/01/10 02:40:07;;;;;;;1.7;1.7;;;;;;;4.8;100.0;101190;;;;
2023/01/10 02:41:05;;;;;;;1.7;1.7;;;;;;;4.8;100.0;101190;;;;
2023/01/10 02:42:03;;;;;;;1.7;1.7;;;;;;;4.8;100.0;101190;;;;
2023/01/10 02:43:07;;;;;;;1.7;1.7;;;;;;;4.9;100.0;101190;;;;
2023/01/10 02:44:04;;;;;;;1.7;1.7;;;;;;;4.9;100.0;101190;;;;
2023/01/10 02:45:10;;;;;;;1.7;1.7;;;;;;;4.8;100.0;101190;;;;
2023/01/10 02:46:03;;;;;;;1.7;1.7;;;;;;;4.8;100.0;101190;;;;
2023/01/10 02:47:02;;;;;;;1.7;1.7;;;;;;;4.9;100.0;101190;;;;
2023/01/10 02:48:00;;;;;;;1.7;1.7;;;;;;;4.9;100.0;101190;;;;
2023/01/10 02:49:00;;;;;;;1.7;1.7;;;;;;;4.9;100.0;101190;;;;
2023/01/10 02:50:10;;;;;;;1.7;1.7;;;;;;;4.9;100.0;101190;;;;
2023/01/10 02:51:02;;;;;;;1.7;1.7;;;;;;;4.9;100.0;101190;;;;
2023/01/10 02:52:00;;;;;;;1.7;1.7;;;;;;;4.9;100.0;101190;;;;
2023/01/10 02:53:03;;;;;;;1.7;1.7;;;;;;;4.9;100.0;101190;;;;
2023/01/10 02:54:06;;;;;;;1.7;1.7;;;;;;;4.9;100.0;101190;;;;
2023/01/10 02:55:02;;;;;;;1.7;1.7;;;;;;;5.0;100.0;101180;;;;
2023/01/10 02:56:01;;;;;;;1.7;1.7;;;;;;;5.0;100.0;101180;;;;
2023/01/10 02:57:01;;;;;;;1.7;1.7;;;;;;;5.0;100.0;101180;;;;
2023/01/10 02:58:01;;;;;;;1.7;1.7;;;;;;;5.0;100.0;101180;;;;
2023/01/10 02:59:10;;;;;;;1.7;1.7;;;;;;;5.0;100.0;101180;;;;
2023/01/10 03:00:10;;;;;;;1.7;1.7;;;;;;;5.0;100.0;101180;;;;
2023/01/10 03:01:06;;;;;;;1.7;1.7;;;;;;;4.9;100.0;101180;;;;
2023/01/10 03:02:10;;;;;;;1.7;1.7;;;;;;;4.9;100.0;101180;;;;
2023/01/10 03:03:10;;;;;;;1.7;1.7;;;;;;;4.9;100.0;101190;;;;
2023/01/10 03:04:04;;;;;;;1.7;1.7;;;;;;;4.9;100.0;101190;;;;
2023/01/10 03:05:07;;;;;;;1.7;1.7;;;;;;;4.9;100.0;101190;;;;
2023/01/10 03:06:01;;;;;;;1.7;1.7;;;;;;;4.9;100.0;101190;;;;
2023/01/10 03:07:10;;;;;;;1.7;1.7;;;;;;;4.9;100.0;101190;;;;
2023/01/10 03:08:10;;;;;;;1.7;1.7;;;;;;;4.9;100.0;101190;;;;
2023/01/10 03:09:06;;;;;;;1.7;1.7;;;;;;;4.9;100.0;101200;;;;
2023/01/10 03:10:01;;;;;;;1.7;1.7;;;;;;;4.9;100.0;101200;;;;
2023/01/10 03:11:02;;;;;;;1.7;1.7;;;;;;;4.9;100.0;101200;;;;
2023/01/10 03:12:07;;;;;;;1.7;1.7;;;;;;;4.9;100.0;101200;;;;
2023/01/10 03:13:00;;;;;;;1.7;1.7;;;;;;;4.8;100.0;101200;;;;
2023/01/10 03:14:02;;;;;;;2.0;2.0;;;;;;;4.8;100.0;101200;;;;
2023/01/10 03:15:02;;;;;;;2.0;2.0;;;;;;;4.8;100.0;101210;;;;
2023/01/10 03:16:01;;;;;;;2.0;2.0;;;;;;;4.8;100.0;101210;;;;
2023/01/10 03:17:05;;;;;;;2.0;2.0;;;;;;;4.8;100.0;101210;;;;
2023/01/10 03:18:01;;;;;;;2.0;2.0;;;;;;;4.8;100.0;101210;;;;
2023/01/10 03:19:02;;;;;;;2.0;2.0;;;;;;;4.8;100.0;101210;;;;
2023/01/10 03:20:03;;;;;;;2.0;2.0;;;;;;;4.8;100.0;101210;;;;
2023/01/10 03:21:02;;;;;;;2.0;2.0;;;;;;;4.8;100.0;101210;;;;
2023/01/10 03:22:01;;;;;;;2.0;2.0;;;;;;;4.8;100.0;101210;;;;
2023/01/10 03:23:02;;;;;;;2.0;2.0;;;;;;;4.8;100.0;101220;;;;
2023/01/10 03:24:04;;;;;;;2.0;2.0;;;;;;;4.8;100.0;101220;;;;
2023/01/10 03:25:03;;;;;;;2.0;2.0;;;;;;;4.8;100.0;101230;;;;
2023/01/10 03:26:02;;;;;;;2.0;2.0;;;;;;;4.8;100.0;101230;;;;
2023/01/10 03:27:04;;;;;;;2.0;2.0;;;;;;;4.7;100.0;101230;;;;
2023/01/10 03:28:01;;;;;;;2.0;2.0;;;;;;;4.7;100.0;101230;;;;
2023/01/10 03:29:03;;;;;;;2.0;2.0;;;;;;;4.8;100.0;101240;;;;
2023/01/10 03:30:10;;;;;;;2.0;2.0;;;;;;;4.8;100.0;101240;;;;
2023/01/10 03:31:01;;;;;;;2.0;2.0;;;;;;;4.6;100.0;101240;;;;
2023/01/10 03:32:03;;;;;;;2.0;2.0;;;;;;;4.6;100.0;101240;;;;
2023/01/10 03:33:01;;;;;;;2.0;2.0;;;;;;;4.7;100.0;101250;;;;
2023/01/10 03:34:01;;;;;;;2.0;2.0;;;;;;;4.7;100.0;101250;;;;
2023/01/10 03:35:01;;;;;;;2.0;2.0;;;;;;;4.7;100.0;101250;;;;
2023/01/10 03:36:15;;;;;;;2.0;2.0;;;;;;;4.7;100.0;101250;;;;
2023/01/10 03:37:07;;;;;;;2.0;2.0;;;;;;;4.8;100.0;101250;;;;
2023/01/10 03:38:05;;;;;;;2.0;2.0;;;;;;;4.8;100.0;101250;;;;
2023/01/10 03:39:07;;;;;;;2.0;2.0;;;;;;;4.8;100.0;101260;;;;
2023/01/10 03:40:10;;;;;;;2.0;2.0;;;;;;;4.8;100.0;101260;;;;
2023/01/10 03:41:03;;;;;;;2.0;2.0;;;;;;;4.8;100.0;101260;;;;
2023/01/10 03:42:07;;;;;;;2.0;2.0;;;;;;;4.8;100.0;101260;;;;
2023/01/10 03:45:05;;;;;;;2.0;2.0;;;;;;;4.8;100.0;101270;;;;
2023/01/10 03:46:04;;;;;;;2.0;2.0;;;;;;;4.8;100.0;101270;;;;
2023/01/10 03:47:04;;;;;;;2.0;2.0;;;;;;;4.8;100.0;101270;;;;
2023/01/10 03:48:02;;;;;;;2.0;2.0;;;;;;;4.8;100.0;101270;;;;
2023/01/10 03:49:02;;;;;;;2.0;2.0;;;;;;;4.9;100.0;101270;;;;
2023/01/10 03:50:02;;;;;;;2.0;2.0;;;;;;;4.9;100.0;101270;;;;
2023/01/10 03:51:02;;;;;;;2.0;2.0;;;;;;;5.0;100.0;101270;;;;
2023/01/10 03:52:01;;;;;;;2.0;2.0;;;;;;;5.0;100.0;101270;;;;
2023/01/10 03:53:00;;;;;;;2.0;2.0;;;;;;;4.9;100.0;101280;;;;
2023/01/10 03:54:01;;;;;;;1.7;1.7;;;;;;;4.9;100.0;101280;;;;
2023/01/10 03:55:02;;;;;;;1.7;1.7;;;;;;;5.0;100.0;101280;;;;
2023/01/10 03:56:00;;;;;;;1.7;1.7;;;;;;;5.0;100.0;101280;;;;
2023/01/10 03:57:02;;;;;;;1.7;1.7;;;;;;;5.0;100.0;101280;;;;
2023/01/10 03:58:00;;;;;;;1.7;1.7;;;;;;;5.0;100.0;101280;;;;
2023/01/10 03:59:00;;;;;;;1.7;1.7;;;;;;;4.9;100.0;101280;;;;
2023/01/10 04:00:03;;;;;;;1.7;1.7;;;;;;;4.9;100.0;101280;;;;
2023/01/10 04:01:01;;;;;;;1.7;1.7;;;;;;;4.9;100.0;101280;;;;
2023/01/10 04:02:00;;;;;;;1.7;1.7;;;;;;;4.9;100.0;101280;;;;
2023/01/10 04:03:00;;;;;;;1.7;1.7;;;;;;;4.9;100.0;101290;;;;
2023/01/10 04:04:00;;;;;;;1.7;1.7;;;;;;;4.9;100.0;101290;;;;
2023/01/10 04:05:00;;;;;;;1.7;1.7;;;;;;;4.8;100.0;101290;;;;
2023/01/10 04:06:00;;;;;;;1.7;1.7;;;;;;;4.8;100.0;101290;;;;
2023/01/10 04:07:00;;;;;;;1.7;1.7;;;;;;;4.7;100.0;101290;;;;
2023/01/10 04:08:00;;;;;;;1.7;1.7;;;;;;;4.7;100.0;101290;;;;
2023/01/10 04:09:00;;;;;;;1.7;1.7;;;;;;;4.7;100.0;101290;;;;
2023/01/10 04:10:00;;;;;;;1.7;1.7;;;;;;;4.7;100.0;101290;;;;
2023/01/10 04:11:00;;;;;;;1.7;1.7;;;;;;;4.7;100.0;101290;;;;
2023/01/10 04:12:00;;;;;;;1.7;1.7;;;;;;;4.7;100.0;101290;;;;
2023/01/10 04:13:01;;;;;;;1.7;1.7;;;;;;;4.7;100.0;101290;;;;
2023/01/10 04:14:00;;;;;;;2.2;2.2;;;;;;;4.7;100.0;101290;;;;
2023/01/10 04:15:01;;;;;;;2.2;2.2;;;;;;;4.7;100.0;101290;;;;
2023/01/10 04:16:00;;;;;;;2.2;2.2;;;;;;;4.7;100.0;101290;;;;
2023/01/10 04:17:00;;;;;;;2.2;2.2;;;;;;;4.7;100.0;101300;;;;
2023/01/10 04:18:00;;;;;;;2.2;2.2;;;;;;;4.7;100.0;101300;;;;
2023/01/10 04:19:00;;;;;;;2.2;2.2;;;;;;;4.6;100.0;101300;;;;
2023/01/10 04:20:00;;;;;;;2.2;2.2;;;;;;;4.6;100.0;101300;;;;
2023/01/10 04:21:00;;;;;;;2.2;2.2;;;;;;;4.6;100.0;101300;;;;
2023/01/10 04:22:00;;;;;;;2.2;2.2;;;;;;;4.6;100.0;101300;;;;
2023/01/10 04:23:00;;;;;;;2.2;2.2;;;;;;;4.5;100.0;101300;;;;
2023/01/10 04:24:00;;;;;;;2.2;2.2;;;;;;;4.5;100.0;101300;;;;
2023/01/10 04:25:00;;;;;;;2.2;2.2;;;;;;;4.5;100.0;101300;;;;
2023/01/10 04:26:00;;;;;;;2.2;2.2;;;;;;;4.5;100.0;101300;;;;
2023/01/10 04:27:00;;;;;;;2.2;2.2;;;;;;;4.6;100.0;101300;;;;
2023/01/10 04:28:00;;;;;;;2.2;2.2;;;;;;;4.6;100.0;101300;;;;
2023/01/10 04:29:00;;;;;;;2.2;2.2;;;;;;;4.5;100.0;101300;;;;
2023/01/10 04:30:00;;;;;;;2.2;2.2;;;;;;;4.5;100.0;101300;;;;
2023/01/10 04:31:00;;;;;;;2.2;2.2;;;;;;;4.5;100.0;101310;;;;
2023/01/10 04:32:00;;;;;;;2.2;2.2;;;;;;;4.5;100.0;101310;;;;
2023/01/10 04:33:00;;;;;;;2.2;2.2;;;;;;;4.4;100.0;101310;;;;
2023/01/10 04:34:00;;;;;;;2.0;2.0;;;;;;;4.4;100.0;101310;;;;
2023/01/10 04:35:00;;;;;;;2.0;2.0;;;;;;;4.4;100.0;101310;;;;
2023/01/10 04:36:00;;;;;;;2.0;2.0;;;;;;;4.4;100.0;101310;;;;
2023/01/10 04:37:00;;;;;;;2.0;2.0;;;;;;;4.4;100.0;101310;;;;
2023/01/10 04:38:00;;;;;;;2.0;2.0;;;;;;;4.4;100.0;101310;;;;
2023/01/10 04:39:00;;;;;;;2.0;2.0;;;;;;;4.4;100.0;101310;;;;
2023/01/10 04:40:00;;;;;;;2.0;2.0;;;;;;;4.4;100.0;101310;;;;
2023/01/10 04:41:00;;;;;;;2.0;2.0;;;;;;;4.4;100.0;101310;;;;
2023/01/10 04:42:00;;;;;;;2.0;2.0;;;;;;;4.4;100.0;101310;;;;
2023/01/10 04:43:00;;;;;;;2.0;2.0;;;;;;;4.3;100.0;101320;;;;
2023/01/10 04:44:00;;;;;;;2.0;2.0;;;;;;;4.3;100.0;101320;;;;
2023/01/10 04:45:00;;;;;;;2.0;2.0;;;;;;;4.3;100.0;101320;;;;
2023/01/10 04:46:00;;;;;;;2.0;2.0;;;;;;;4.3;100.0;101320;;;;
2023/01/10 04:47:00;;;;;;;2.0;2.0;;;;;;;4.3;100.0;101320;;;;
2023/01/10 04:48:00;;;;;;;2.0;2.0;;;;;;;4.3;100.0;101320;;;;
2023/01/10 04:49:00;;;;;;;2.0;2.0;;;;;;;4.4;100.0;101310;;;;
2023/01/10 04:50:00;;;;;;;2.0;2.0;;;;;;;4.4;100.0;101310;;;;
2023/01/10 04:51:00;;;;;;;2.0;2.0;;;;;;;4.4;100.0;101310;;;;
2023/01/10 04:52:00;;;;;;;2.0;2.0;;;;;;;4.4;100.0;101310;;;;
2023/01/10 04:53:00;;;;;;;2.0;2.0;;;;;;;4.4;100.0;101310;;;;
2023/01/10 04:54:00;;;;;;;2.5;2.4;;;;;;;4.4;100.0;101310;;;;
2023/01/10 04:55:00;;;;;;;2.5;2.4;;;;;;;4.4;100.0;101310;;;;
2023/01/10 04:56:01;;;;;;;2.5;2.4;;;;;;;4.4;100.0;101310;;;;
2023/01/10 04:57:00;;;;;;;2.5;2.4;;;;;;;4.4;100.0;101310;;;;
2023/01/10 04:58:01;;;;;;;2.5;2.4;;;;;;;4.4;100.0;101310;;;;
2023/01/10 04:59:00;;;;;;;2.5;2.4;;;;;;;4.4;100.0;101320;;;;
2023/01/10 05:00:00;;;;;;;2.5;2.4;;;;;;;4.4;100.0;101320;;;;
2023/01/10 05:01:06;;;;;;;2.5;2.4;;;;;;;4.4;100.0;101320;;;;
2023/01/10 05:02:00;;;;;;;2.5;2.4;;;;;;;4.4;100.0;101320;;;;
2023/01/10 05:03:00;;;;;;;2.5;2.4;;;;;;;4.4;100.0;101320;;;;
2023/01/10 05:04:02;;;;;;;2.5;2.4;;;;;;;4.4;100.0;101320;;;;
2023/01/10 05:05:00;;;;;;;2.5;2.4;;;;;;;4.3;100.0;101330;;;;
2023/01/10 05:06:00;;;;;;;2.5;2.4;;;;;;;4.3;100.0;101330;;;;
2023/01/10 05:07:00;;;;;;;2.5;2.4;;;;;;;4.3;100.0;101330;;;;
2023/01/10 05:08:00;;;;;;;2.5;2.4;;;;;;;4.3;100.0;101330;;;;
2023/01/10 05:09:00;;;;;;;2.5;2.4;;;;;;;4.3;100.0;101330;;;;
2023/01/10 05:10:00;;;;;;;2.5;2.4;;;;;;;4.3;100.0;101330;;;;
2023/01/10 05:11:00;;;;;;;2.5;2.4;;;;;;;4.4;100.0;101340;;;;
2023/01/10 05:12:00;;;;;;;2.5;2.4;;;;;;;4.4;100.0;101340;;;;
2023/01/10 05:13:00;;;;;;;2.5;2.4;;;;;;;4.4;100.0;101340;;;;
2023/01/10 05:14:00;;;;;;;2.0;2.0;;;;;;;4.4;100.0;101340;;;;
2023/01/10 05:15:00;;;;;;;2.0;2.0;;;;;;;4.4;100.0;101330;;;;
2023/01/10 05:16:00;;;;;;;2.0;2.0;;;;;;;4.4;100.0;101330;;;;
2023/01/10 05:17:00;;;;;;;2.0;2.0;;;;;;;4.4;100.0;101320;;;;
2023/01/10 05:18:00;;;;;;;2.0;2.0;;;;;;;4.4;100.0;101320;;;;
2023/01/10 05:19:00;;;;;;;2.0;2.0;;;;;;;4.4;100.0;101320;;;;
2023/01/10 05:20:00;;;;;;;2.0;2.0;;;;;;;4.4;100.0;101320;;;;
2023/01/10 05:21:01;;;;;;;2.0;2.0;;;;;;;4.4;100.0;101330;;;;
2023/01/10 05:22:00;;;;;;;2.0;2.0;;;;;;;4.4;100.0;101330;;;;
2023/01/10 05:23:00;;;;;;;2.0;2.0;;;;;;;4.4;100.0;101340;;;;
2023/01/10 05:24:00;;;;;;;2.0;2.0;;;;;;;4.4;100.0;101340;;;;
2023/01/10 05:25:00;;;;;;;2.0;2.0;;;;;;;4.4;100.0;101340;;;;
2023/01/10 05:26:04;;;;;;;2.0;2.0;;;;;;;4.4;100.0;101340;;;;
2023/01/10 05:27:00;;;;;;;2.0;2.0;;;;;;;4.4;100.0;101350;;;;
2023/01/10 05:28:00;;;;;;;2.0;2.0;;;;;;;4.4;100.0;101350;;;;
2023/01/10 05:29:00;;;;;;;2.0;2.0;;;;;;;4.4;100.0;101360;;;;
2023/01/10 05:30:00;;;;;;;2.0;2.0;;;;;;;4.4;100.0;101360;;;;
2023/01/10 05:31:00;;;;;;;2.0;2.0;;;;;;;4.4;100.0;101360;;;;
2023/01/10 05:32:00;;;;;;;2.0;2.0;;;;;;;4.4;100.0;101360;;;;
2023/01/10 05:33:02;;;;;;;2.1;2.1;;;;;;;4.4;100.0;101370;;;;
2023/01/10 05:34:01;;;;;;;2.1;2.1;;;;;;;4.4;100.0;101370;;;;
2023/01/10 05:35:00;;;;;;;2.1;2.1;;;;;;;4.3;100.0;101380;;;;
2023/01/10 05:36:01;;;;;;;2.1;2.1;;;;;;;4.3;100.0;101380;;;;
2023/01/10 05:37:00;;;;;;;2.1;2.1;;;;;;;4.4;100.0;101380;;;;
2023/01/10 05:38:00;;;;;;;2.1;2.1;;;;;;;4.4;100.0;101380;;;;
2023/01/10 05:39:00;;;;;;;2.1;2.1;;;;;;;4.3;100.0;101380;;;;
2023/01/10 05:40:00;;;;;;;2.1;2.1;;;;;;;4.3;100.0;101380;;;;
2023/01/10 05:41:00;;;;;;;2.1;2.1;;;;;;;4.3;100.0;101380;;;;
2023/01/10 05:42:00;;;;;;;2.1;2.1;;;;;;;4.3;100.0;101380;;;;
2023/01/10 05:43:00;;;;;;;2.1;2.1;;;;;;;4.3;100.0;101390;;;;
2023/01/10 05:44:00;;;;;;;2.1;2.1;;;;;;;4.3;100.0;101390;;;;
2023/01/10 05:45:00;;;;;;;2.1;2.1;;;;;;;4.3;100.0;101400;;;;
2023/01/10 05:46:01;;;;;;;2.1;2.1;;;;;;;4.3;100.0;101400;;;;
2023/01/10 05:47:00;;;;;;;2.1;2.1;;;;;;;4.3;100.0;101400;;;;
2023/01/10 05:48:00;;;;;;;2.1;2.1;;;;;;;4.3;100.0;101400;;;;
2023/01/10 05:49:00;;;;;;;2.1;2.1;;;;;;;4.4;100.0;101400;;;;
2023/01/10 05:50:00;;;;;;;2.1;2.1;;;;;;;4.4;100.0;101400;;;;
2023/01/10 05:51:00;;;;;;;2.1;2.1;;;;;;;4.4;100.0;101400;;;;
2023/01/10 05:52:00;;;;;;;2.1;2.1;;;;;;;4.4;100.0;101400;;;;
2023/01/10 05:53:04;;;;;;;2.0;2.0;;;;;;;4.4;100.0;101400;;;;
2023/01/10 05:54:00;;;;;;;2.0;2.0;;;;;;;4.4;100.0;101400;;;;
2023/01/10 05:55:00;;;;;;;2.0;2.0;;;;;;;4.5;100.0;101400;;;;
2023/01/10 05:56:01;;;;;;;2.0;2.0;;;;;;;4.5;100.0;101400;;;;
2023/01/10 05:57:00;;;;;;;2.0;2.0;;;;;;;4.5;100.0;101400;;;;
2023/01/10 05:58:00;;;;;;;2.0;2.0;;;;;;;4.5;100.0;101400;;;;
2023/01/10 05:59:10;;;;;;;2.0;2.0;;;;;;;4.4;100.0;101400;;;;
2023/01/10 06:00:00;;;;;;;2.0;2.0;;;;;;;4.4;100.0;101400;;;;
2023/01/10 06:01:00;;;;;;;2.0;2.0;;;;;;;4.5;100.0;101400;;;;
2023/01/10 06:02:00;;;;;;;2.0;2.0;;;;;;;4.5;100.0;101400;;;;
2023/01/10 06:03:00;;;;;;;2.0;2.0;;;;;;;4.4;100.0;101410;;;;
2023/01/10 06:04:00;;;;;;;2.0;2.0;;;;;;;4.4;100.0;101410;;;;
2023/01/10 06:05:00;;;;;;;2.0;2.0;;;;;;;4.4;100.0;101410;;;;
2023/01/10 06:06:02;;;;;;;2.0;2.0;;;;;;;4.4;100.0;101410;;;;
2023/01/10 06:07:00;;;;;;;2.0;2.0;;;;;;;4.4;100.0;101410;;;;
2023/01/10 06:08:00;;;;;;;2.0;2.0;;;;;;;4.4;100.0;101410;;;;
2023/01/10 06:09:00;;;;;;;2.0;2.0;;;;;;;4.4;100.0;101410;;;;
2023/01/10 06:10:00;;;;;;;2.0;2.0;;;;;;;4.4;100.0;101410;;;;
2023/01/10 06:11:00;;;;;;;2.0;2.0;;;;;;;4.4;100.0;101410;;;;
2023/01/10 06:12:00;;;;;;;2.0;2.0;;;;;;;4.4;100.0;101410;;;;
2023/01/10 06:13:00;;;;;;;2.1;2.1;;;;;;;4.4;100.0;101410;;;;
2023/01/10 06:14:00;;;;;;;2.1;2.1;;;;;;;4.4;100.0;101410;;;;
2023/01/10 06:15:02;;;;;;;2.1;2.1;;;;;;;4.4;100.0;101410;;;;
2023/01/10 06:16:00;;;;;;;2.1;2.1;;;;;;;4.4;100.0;101410;;;;
2023/01/10 06:17:00;;;;;;;2.1;2.1;;;;;;;4.5;100.0;101410;;;;
2023/01/10 06:18:00;;;;;;;2.1;2.1;;;;;;;4.5;100.0;101410;;;;
2023/01/10 06:19:00;;;;;;;2.1;2.1;;;;;;;4.5;100.0;101410;;;;
2023/01/10 06:20:00;;;;;;;2.1;2.1;;;;;;;4.5;100.0;101410;;;;
2023/01/10 06:21:00;;;;;;;2.1;2.1;;;;;;;4.5;100.0;101410;;;;
2023/01/10 06:22:01;;;;;;;2.1;2.1;;;;;;;4.5;100.0;101410;;;;
2023/01/10 06:23:03;;;;;;;2.1;2.1;;;;;;;4.5;100.0;101410;;;;
2023/01/10 06:24:00;;;;;;;2.1;2.1;;;;;;;4.5;100.0;101410;;;;
2023/01/10 06:25:02;;;;;;;2.1;2.1;;;;;;;4.5;100.0;101410;;;;
2023/01/10 06:26:00;;;;;;;2.1;2.1;;;;;;;4.5;100.0;101410;;;;
2023/01/10 06:27:00;;;;;;;2.1;2.1;;;;;;;4.6;100.0;101420;;;;
2023/01/10 06:28:00;;;;;;;2.1;2.1;;;;;;;4.6;100.0;101420;;;;
2023/01/10 06:29:00;;;;;;;2.1;2.1;;;;;;;4.6;100.0;101420;;;;
2023/01/10 06:30:00;;;;;;;2.1;2.1;;;;;;;4.6;100.0;101420;;;;
2023/01/10 06:31:00;;;;;;;2.1;2.1;;;;;;;4.6;100.0;101430;;;;
2023/01/10 06:32:00;;;;;;;2.1;2.1;;;;;;;4.6;100.0;101430;;;;
2023/01/10 06:33:01;;;;;;;2.0;2.0;;;;;;;4.6;100.0;101420;;;;
2023/01/10 06:34:00;;;;;;;2.0;2.0;;;;;;;4.6;100.0;101420;;;;
2023/01/10 06:35:00;;;;;;;2.0;2.0;;;;;;;4.6;100.0;101420;;;;
2023/01/10 06:36:01;;;;;;;2.0;2.0;;;;;;;4.6;100.0;101420;;;;